sensor_id;sensor_type;location;lat;lon;timestamp;temperature;humidity
9885;DHT22;4981;50.966;4.842;2022-08-07T00:02:10;15.60;1.00
9885;DHT22;4981;50.966;4.842;2022-08-07T00:04:37;15.60;1.00
9885;DHT22;4981;50.966;4.842;2022-08-07T00:07:05;15.50;1.00
9885;DHT22;4981;50.966;4.842;2022-08-07T00:09:32;15.40;1.00
9885;DHT22;4981;50.966;4.842;2022-08-07T00:11:59;15.30;1.00
9885;DHT22;4981;50.966;4.842;2022-08-07T00:14:26;15.20;1.00
9885;DHT22;4981;50.966;4.842;2022-08-07T00:16:55;15.30;1.00
9885;DHT22;4981;50.966;4.842;2022-08-07T00:19:24;15.30;1.00
9885;DHT22;4981;50.966;4.842;2022-08-07T00:21:53;15.20;1.00
9885;DHT22;4981;50.966;4.842;2022-08-07T00:24:20;15.30;1.00
9885;DHT22;4981;50.966;4.842;2022-08-07T00:26:47;14.90;1.00
9885;DHT22;4981;50.966;4.842;2022-08-07T00:29:15;14.60;1.00
9885;DHT22;4981;50.966;4.842;2022-08-07T00:31:44;14.70;1.00
9885;DHT22;4981;50.966;4.842;2022-08-07T00:34:11;15.00;1.00
9885;DHT22;4981;50.966;4.842;2022-08-07T00:36:40;15.10;1.00
9885;DHT22;4981;50.966;4.842;2022-08-07T00:39:07;15.10;1.00
9885;DHT22;4981;50.966;4.842;2022-08-07T00:41:34;14.90;1.00
9885;DHT22;4981;50.966;4.842;2022-08-07T00:44:02;14.50;1.00
9885;DHT22;4981;50.966;4.842;2022-08-07T00:46:30;14.30;1.00
9885;DHT22;4981;50.966;4.842;2022-08-07T00:48:57;14.60;1.00
9885;DHT22;4981;50.966;4.842;2022-08-07T00:51:27;14.70;1.00
9885;DHT22;4981;50.966;4.842;2022-08-07T00:53:56;14.40;1.00
9885;DHT22;4981;50.966;4.842;2022-08-07T00:56:24;14.40;1.00
9885;DHT22;4981;50.966;4.842;2022-08-07T00:58:51;14.20;1.00
9885;DHT22;4981;50.966;4.842;2022-08-07T01:01:18;14.10;1.00
9885;DHT22;4981;50.966;4.842;2022-08-07T01:03:46;13.90;1.00
9885;DHT22;4981;50.966;4.842;2022-08-07T01:06:13;14.00;1.00
9885;DHT22;4981;50.966;4.842;2022-08-07T01:08:41;14.00;1.00
9885;DHT22;4981;50.966;4.842;2022-08-07T01:11:10;13.90;1.00
9885;DHT22;4981;50.966;4.842;2022-08-07T01:13:38;13.80;1.00
9885;DHT22;4981;50.966;4.842;2022-08-07T01:16:06;13.50;1.00
9885;DHT22;4981;50.966;4.842;2022-08-07T01:18:34;13.70;1.00
9885;DHT22;4981;50.966;4.842;2022-08-07T01:21:08;14.10;1.00
9885;DHT22;4981;50.966;4.842;2022-08-07T01:23:36;13.60;1.00
9885;DHT22;4981;50.966;4.842;2022-08-07T01:26:06;13.60;1.00
9885;DHT22;4981;50.966;4.842;2022-08-07T01:28:34;13.70;1.00
9885;DHT22;4981;50.966;4.842;2022-08-07T01:31:02;13.60;1.00
9885;DHT22;4981;50.966;4.842;2022-08-07T01:33:29;13.60;1.00
9885;DHT22;4981;50.966;4.842;2022-08-07T01:35:57;13.60;1.00
9885;DHT22;4981;50.966;4.842;2022-08-07T01:38:28;13.80;1.00
9885;DHT22;4981;50.966;4.842;2022-08-07T01:40:58;13.80;1.00
9885;DHT22;4981;50.966;4.842;2022-08-07T01:43:26;13.60;1.00
9885;DHT22;4981;50.966;4.842;2022-08-07T01:45:54;13.50;1.00
9885;DHT22;4981;50.966;4.842;2022-08-07T01:48:22;13.40;1.00
9885;DHT22;4981;50.966;4.842;2022-08-07T01:50:54;13.40;1.00
9885;DHT22;4981;50.966;4.842;2022-08-07T01:53:24;13.20;1.00
9885;DHT22;4981;50.966;4.842;2022-08-07T01:55:56;13.10;1.00
9885;DHT22;4981;50.966;4.842;2022-08-07T01:58:27;13.30;1.00
9885;DHT22;4981;50.966;4.842;2022-08-07T02:01:00;13.20;1.00
9885;DHT22;4981;50.966;4.842;2022-08-07T02:03:29;13.10;1.00
9885;DHT22;4981;50.966;4.842;2022-08-07T02:06:01;13.00;1.00
9885;DHT22;4981;50.966;4.842;2022-08-07T02:08:29;13.10;1.00
9885;DHT22;4981;50.966;4.842;2022-08-07T02:11:02;13.00;1.00
9885;DHT22;4981;50.966;4.842;2022-08-07T02:13:31;13.20;1.00
9885;DHT22;4981;50.966;4.842;2022-08-07T02:16:01;13.10;1.00
9885;DHT22;4981;50.966;4.842;2022-08-07T02:18:32;13.20;1.00
9885;DHT22;4981;50.966;4.842;2022-08-07T02:21:02;13.10;1.00
9885;DHT22;4981;50.966;4.842;2022-08-07T02:23:31;13.00;1.00
9885;DHT22;4981;50.966;4.842;2022-08-07T02:26:02;12.90;1.00
9885;DHT22;4981;50.966;4.842;2022-08-07T02:28:30;12.90;1.00
9885;DHT22;4981;50.966;4.842;2022-08-07T02:31:00;12.90;1.00
9885;DHT22;4981;50.966;4.842;2022-08-07T02:33:28;12.90;1.00
9885;DHT22;4981;50.966;4.842;2022-08-07T02:35:57;12.80;1.00
9885;DHT22;4981;50.966;4.842;2022-08-07T02:38:27;12.70;1.00
9885;DHT22;4981;50.966;4.842;2022-08-07T02:40:56;12.80;1.00
9885;DHT22;4981;50.966;4.842;2022-08-07T02:43:25;12.90;1.00
9885;DHT22;4981;50.966;4.842;2022-08-07T02:45:54;12.70;1.00
9885;DHT22;4981;50.966;4.842;2022-08-07T02:48:23;12.80;1.00
9885;DHT22;4981;50.966;4.842;2022-08-07T02:50:53;12.70;1.00
9885;DHT22;4981;50.966;4.842;2022-08-07T02:53:23;12.70;1.00
9885;DHT22;4981;50.966;4.842;2022-08-07T02:55:54;12.60;1.00
9885;DHT22;4981;50.966;4.842;2022-08-07T02:58:22;12.60;1.00
9885;DHT22;4981;50.966;4.842;2022-08-07T03:00:54;12.50;1.00
9885;DHT22;4981;50.966;4.842;2022-08-07T03:03:26;12.80;1.00
9885;DHT22;4981;50.966;4.842;2022-08-07T03:05:55;12.40;1.00
9885;DHT22;4981;50.966;4.842;2022-08-07T03:08:23;12.30;1.00
9885;DHT22;4981;50.966;4.842;2022-08-07T03:10:50;12.30;1.00
9885;DHT22;4981;50.966;4.842;2022-08-07T03:13:18;12.50;1.00
9885;DHT22;4981;50.966;4.842;2022-08-07T03:15:46;12.30;1.00
9885;DHT22;4981;50.966;4.842;2022-08-07T03:18:16;12.40;1.00
9885;DHT22;4981;50.966;4.842;2022-08-07T03:20:43;12.50;1.00
9885;DHT22;4981;50.966;4.842;2022-08-07T03:23:12;12.60;1.00
9885;DHT22;4981;50.966;4.842;2022-08-07T03:25:41;12.80;1.00
9885;DHT22;4981;50.966;4.842;2022-08-07T03:28:11;13.10;1.00
9885;DHT22;4981;50.966;4.842;2022-08-07T03:30:39;12.90;1.00
9885;DHT22;4981;50.966;4.842;2022-08-07T03:33:07;12.90;1.00
9885;DHT22;4981;50.966;4.842;2022-08-07T03:35:38;12.60;1.00
9885;DHT22;4981;50.966;4.842;2022-08-07T03:38:07;12.30;1.00
9885;DHT22;4981;50.966;4.842;2022-08-07T03:40:36;12.30;1.00
9885;DHT22;4981;50.966;4.842;2022-08-07T03:43:04;12.30;1.00
9885;DHT22;4981;50.966;4.842;2022-08-07T03:45:32;12.10;1.00
9885;DHT22;4981;50.966;4.842;2022-08-07T03:48:00;12.30;1.00
9885;DHT22;4981;50.966;4.842;2022-08-07T03:50:28;12.20;1.00
9885;DHT22;4981;50.966;4.842;2022-08-07T03:52:58;12.20;1.00
9885;DHT22;4981;50.966;4.842;2022-08-07T03:55:27;12.60;1.00
9885;DHT22;4981;50.966;4.842;2022-08-07T03:57:55;12.20;1.00
9885;DHT22;4981;50.966;4.842;2022-08-07T04:00:23;12.20;1.00
9885;DHT22;4981;50.966;4.842;2022-08-07T04:02:51;12.60;1.00
9885;DHT22;4981;50.966;4.842;2022-08-07T04:05:19;12.40;1.00
9885;DHT22;4981;50.966;4.842;2022-08-07T04:07:47;12.40;1.00
9885;DHT22;4981;50.966;4.842;2022-08-07T04:10:17;12.50;1.00
9885;DHT22;4981;50.966;4.842;2022-08-07T04:12:45;12.50;1.00
9885;DHT22;4981;50.966;4.842;2022-08-07T04:15:12;12.70;1.00
9885;DHT22;4981;50.966;4.842;2022-08-07T04:17:42;12.60;1.00
9885;DHT22;4981;50.966;4.842;2022-08-07T04:20:11;12.60;1.00
9885;DHT22;4981;50.966;4.842;2022-08-07T04:22:39;12.50;1.00
9885;DHT22;4981;50.966;4.842;2022-08-07T04:25:08;12.30;1.00
9885;DHT22;4981;50.966;4.842;2022-08-07T04:27:36;12.50;1.00
9885;DHT22;4981;50.966;4.842;2022-08-07T04:30:05;12.40;1.00
9885;DHT22;4981;50.966;4.842;2022-08-07T04:32:33;12.40;1.00
9885;DHT22;4981;50.966;4.842;2022-08-07T04:35:02;12.30;1.00
9885;DHT22;4981;50.966;4.842;2022-08-07T04:37:30;12.30;1.00
9885;DHT22;4981;50.966;4.842;2022-08-07T04:39:58;12.30;1.00
9885;DHT22;4981;50.966;4.842;2022-08-07T04:42:25;12.30;1.00
9885;DHT22;4981;50.966;4.842;2022-08-07T04:44:57;12.20;1.00
9885;DHT22;4981;50.966;4.842;2022-08-07T04:47:31;12.20;1.00
9885;DHT22;4981;50.966;4.842;2022-08-07T04:50:04;12.30;1.00
9885;DHT22;4981;50.966;4.842;2022-08-07T04:52:38;12.30;1.00
9885;DHT22;4981;50.966;4.842;2022-08-07T04:55:12;12.30;1.00
9885;DHT22;4981;50.966;4.842;2022-08-07T04:57:46;12.30;1.00
9885;DHT22;4981;50.966;4.842;2022-08-07T05:00:19;12.30;1.00
9885;DHT22;4981;50.966;4.842;2022-08-07T05:02:53;12.20;1.00
9885;DHT22;4981;50.966;4.842;2022-08-07T05:05:23;12.10;1.00
9885;DHT22;4981;50.966;4.842;2022-08-07T05:07:57;12.20;1.00
9885;DHT22;4981;50.966;4.842;2022-08-07T05:10:31;12.30;1.00
9885;DHT22;4981;50.966;4.842;2022-08-07T05:13:05;12.40;1.00
9885;DHT22;4981;50.966;4.842;2022-08-07T05:15:36;12.50;1.00
9885;DHT22;4981;50.966;4.842;2022-08-07T05:18:07;12.70;1.00
9885;DHT22;4981;50.966;4.842;2022-08-07T05:20:38;12.80;1.00
9885;DHT22;4981;50.966;4.842;2022-08-07T05:23:10;12.90;1.00
9885;DHT22;4981;50.966;4.842;2022-08-07T05:25:40;13.00;1.00
9885;DHT22;4981;50.966;4.842;2022-08-07T05:28:09;13.10;1.00
9885;DHT22;4981;50.966;4.842;2022-08-07T05:30:40;13.20;1.00
9885;DHT22;4981;50.966;4.842;2022-08-07T05:33:08;13.20;1.00
9885;DHT22;4981;50.966;4.842;2022-08-07T05:35:36;13.30;1.00
9885;DHT22;4981;50.966;4.842;2022-08-07T05:38:05;13.40;1.00
9885;DHT22;4981;50.966;4.842;2022-08-07T05:40:33;13.50;1.00
9885;DHT22;4981;50.966;4.842;2022-08-07T05:43:02;13.60;1.00
9885;DHT22;4981;50.966;4.842;2022-08-07T05:45:30;13.60;1.00
9885;DHT22;4981;50.966;4.842;2022-08-07T05:48:01;13.70;1.00
9885;DHT22;4981;50.966;4.842;2022-08-07T05:50:29;14.20;1.00
9885;DHT22;4981;50.966;4.842;2022-08-07T05:52:59;13.80;1.00
9885;DHT22;4981;50.966;4.842;2022-08-07T05:55:26;13.90;1.00
9885;DHT22;4981;50.966;4.842;2022-08-07T05:57:54;14.00;1.00
9885;DHT22;4981;50.966;4.842;2022-08-07T06:00:22;14.10;1.00
9885;DHT22;4981;50.966;4.842;2022-08-07T06:02:51;14.20;1.00
9885;DHT22;4981;50.966;4.842;2022-08-07T06:05:22;14.30;1.00
9885;DHT22;4981;50.966;4.842;2022-08-07T06:07:53;14.30;1.00
9885;DHT22;4981;50.966;4.842;2022-08-07T06:10:21;14.40;1.00
9885;DHT22;4981;50.966;4.842;2022-08-07T06:12:49;14.50;1.00
9885;DHT22;4981;50.966;4.842;2022-08-07T06:15:17;14.50;1.00
9885;DHT22;4981;50.966;4.842;2022-08-07T06:17:45;14.50;1.00
9885;DHT22;4981;50.966;4.842;2022-08-07T06:20:13;14.60;1.00
9885;DHT22;4981;50.966;4.842;2022-08-07T06:22:43;14.80;1.00
9885;DHT22;4981;50.966;4.842;2022-08-07T06:25:11;15.00;1.00
9885;DHT22;4981;50.966;4.842;2022-08-07T06:27:39;15.10;1.00
9885;DHT22;4981;50.966;4.842;2022-08-07T06:30:07;14.70;1.00
9885;DHT22;4981;50.966;4.842;2022-08-07T06:32:35;14.70;1.00
9885;DHT22;4981;50.966;4.842;2022-08-07T06:35:03;14.90;1.00
9885;DHT22;4981;50.966;4.842;2022-08-07T06:37:30;14.90;1.00
9885;DHT22;4981;50.966;4.842;2022-08-07T06:39:59;15.00;1.00
9885;DHT22;4981;50.966;4.842;2022-08-07T06:42:31;15.00;1.00
9885;DHT22;4981;50.966;4.842;2022-08-07T06:45:03;15.10;1.00
9885;DHT22;4981;50.966;4.842;2022-08-07T06:47:31;15.20;1.00
9885;DHT22;4981;50.966;4.842;2022-08-07T06:49:58;15.40;1.00
9885;DHT22;4981;50.966;4.842;2022-08-07T06:52:29;15.50;1.00
9885;DHT22;4981;50.966;4.842;2022-08-07T06:54:59;15.50;1.00
9885;DHT22;4981;50.966;4.842;2022-08-07T06:57:29;15.50;1.00
9885;DHT22;4981;50.966;4.842;2022-08-07T06:59:58;15.60;1.00
9885;DHT22;4981;50.966;4.842;2022-08-07T07:02:26;15.80;1.00
9885;DHT22;4981;50.966;4.842;2022-08-07T07:04:54;15.90;1.00
9885;DHT22;4981;50.966;4.842;2022-08-07T07:07:22;16.00;1.00
9885;DHT22;4981;50.966;4.842;2022-08-07T07:09:50;15.90;1.00
9885;DHT22;4981;50.966;4.842;2022-08-07T07:12:25;16.00;1.00
9885;DHT22;4981;50.966;4.842;2022-08-07T07:15:00;16.00;1.00
9885;DHT22;4981;50.966;4.842;2022-08-07T07:17:34;16.10;1.00
9885;DHT22;4981;50.966;4.842;2022-08-07T07:20:07;16.20;1.00
9885;DHT22;4981;50.966;4.842;2022-08-07T07:22:36;16.30;1.00
9885;DHT22;4981;50.966;4.842;2022-08-07T07:25:06;16.40;1.00
9885;DHT22;4981;50.966;4.842;2022-08-07T07:27:39;16.50;1.00
9885;DHT22;4981;50.966;4.842;2022-08-07T07:30:09;16.40;1.00
9885;DHT22;4981;50.966;4.842;2022-08-07T07:32:38;16.60;1.00
9885;DHT22;4981;50.966;4.842;2022-08-07T07:35:09;16.60;1.00
9885;DHT22;4981;50.966;4.842;2022-08-07T07:37:38;16.80;1.00
9885;DHT22;4981;50.966;4.842;2022-08-07T07:40:13;16.90;1.00
9885;DHT22;4981;50.966;4.842;2022-08-07T07:42:44;16.80;1.00
9885;DHT22;4981;50.966;4.842;2022-08-07T07:45:13;16.90;1.00
9885;DHT22;4981;50.966;4.842;2022-08-07T07:47:43;17.00;1.00
9885;DHT22;4981;50.966;4.842;2022-08-07T07:50:13;17.10;1.00
9885;DHT22;4981;50.966;4.842;2022-08-07T07:52:44;17.10;1.00
9885;DHT22;4981;50.966;4.842;2022-08-07T07:55:13;17.10;1.00
9885;DHT22;4981;50.966;4.842;2022-08-07T07:57:43;17.20;1.00
9885;DHT22;4981;50.966;4.842;2022-08-07T08:00:13;17.30;1.00
9885;DHT22;4981;50.966;4.842;2022-08-07T08:02:41;17.50;1.00
9885;DHT22;4981;50.966;4.842;2022-08-07T08:05:10;17.50;1.00
9885;DHT22;4981;50.966;4.842;2022-08-07T08:07:38;17.70;1.00
9885;DHT22;4981;50.966;4.842;2022-08-07T08:10:07;17.80;1.00
9885;DHT22;4981;50.966;4.842;2022-08-07T08:12:36;17.90;1.00
9885;DHT22;4981;50.966;4.842;2022-08-07T08:15:07;18.60;1.00
9885;DHT22;4981;50.966;4.842;2022-08-07T08:17:34;18.50;1.00
9885;DHT22;4981;50.966;4.842;2022-08-07T08:20:04;18.30;1.00
9885;DHT22;4981;50.966;4.842;2022-08-07T08:22:33;18.20;1.00
9885;DHT22;4981;50.966;4.842;2022-08-07T08:25:20;18.60;1.00
9885;DHT22;4981;50.966;4.842;2022-08-07T08:28:08;18.40;1.00
9885;DHT22;4981;50.966;4.842;2022-08-07T08:30:39;18.80;1.00
9885;DHT22;4981;50.966;4.842;2022-08-07T08:33:10;18.50;1.00
9885;DHT22;4981;50.966;4.842;2022-08-07T08:35:42;18.50;1.00
9885;DHT22;4981;50.966;4.842;2022-08-07T08:38:12;18.60;1.00
9885;DHT22;4981;50.966;4.842;2022-08-07T08:40:45;18.60;1.00
9885;DHT22;4981;50.966;4.842;2022-08-07T08:43:16;19.80;1.00
9885;DHT22;4981;50.966;4.842;2022-08-07T08:45:51;20.10;1.00
9885;DHT22;4981;50.966;4.842;2022-08-07T08:48:24;19.50;1.00
9885;DHT22;4981;50.966;4.842;2022-08-07T08:50:55;19.30;1.00
9885;DHT22;4981;50.966;4.842;2022-08-07T08:53:32;19.20;1.00
9885;DHT22;4981;50.966;4.842;2022-08-07T08:56:06;19.80;1.00
9885;DHT22;4981;50.966;4.842;2022-08-07T08:58:39;19.30;1.00
9885;DHT22;4981;50.966;4.842;2022-08-07T09:01:14;19.20;1.00
9885;DHT22;4981;50.966;4.842;2022-08-07T09:03:52;19.20;1.00
9885;DHT22;4981;50.966;4.842;2022-08-07T09:06:32;19.30;1.00
9885;DHT22;4981;50.966;4.842;2022-08-07T09:09:06;19.30;1.00
9885;DHT22;4981;50.966;4.842;2022-08-07T09:11:42;19.60;1.00
9885;DHT22;4981;50.966;4.842;2022-08-07T09:14:13;19.40;1.00
9885;DHT22;4981;50.966;4.842;2022-08-07T09:16:59;19.40;1.00
9885;DHT22;4981;50.966;4.842;2022-08-07T09:19:44;19.80;1.00
9885;DHT22;4981;50.966;4.842;2022-08-07T09:22:33;19.80;1.00
9885;DHT22;4981;50.966;4.842;2022-08-07T09:25:09;20.20;1.00
9885;DHT22;4981;50.966;4.842;2022-08-07T09:27:43;20.20;1.00
9885;DHT22;4981;50.966;4.842;2022-08-07T09:30:13;20.00;1.00
9885;DHT22;4981;50.966;4.842;2022-08-07T09:33:03;19.60;1.00
9885;DHT22;4981;50.966;4.842;2022-08-07T09:35:39;20.80;1.00
9885;DHT22;4981;50.966;4.842;2022-08-07T09:38:14;20.90;1.00
9885;DHT22;4981;50.966;4.842;2022-08-07T09:40:56;20.40;1.00
9885;DHT22;4981;50.966;4.842;2022-08-07T09:43:35;20.40;1.00
9885;DHT22;4981;50.966;4.842;2022-08-07T09:46:12;20.60;1.00
9885;DHT22;4981;50.966;4.842;2022-08-07T09:49:00;21.00;1.00
9885;DHT22;4981;50.966;4.842;2022-08-07T09:51:42;20.40;1.00
9885;DHT22;4981;50.966;4.842;2022-08-07T09:54:16;21.10;1.00
9885;DHT22;4981;50.966;4.842;2022-08-07T09:57:10;21.20;1.00
9885;DHT22;4981;50.966;4.842;2022-08-07T09:59:57;20.70;1.00
9885;DHT22;4981;50.966;4.842;2022-08-07T10:02:47;20.60;1.00
9885;DHT22;4981;50.966;4.842;2022-08-07T10:08:46;20.60;1.00
9885;DHT22;4981;50.966;4.842;2022-08-07T10:11:30;20.80;1.00
9885;DHT22;4981;50.966;4.842;2022-08-07T10:14:11;20.80;1.00
9885;DHT22;4981;50.966;4.842;2022-08-07T10:16:59;21.00;1.00
9885;DHT22;4981;50.966;4.842;2022-08-07T10:19:42;21.30;1.00
9885;DHT22;4981;50.966;4.842;2022-08-07T10:22:27;20.90;1.00
9885;DHT22;4981;50.966;4.842;2022-08-07T10:25:12;20.70;1.00
9885;DHT22;4981;50.966;4.842;2022-08-07T10:28:02;21.00;1.00
9885;DHT22;4981;50.966;4.842;2022-08-07T10:30:42;21.30;1.00
9885;DHT22;4981;50.966;4.842;2022-08-07T10:33:28;21.20;1.00
9885;DHT22;4981;50.966;4.842;2022-08-07T10:36:12;21.40;1.00
9885;DHT22;4981;50.966;4.842;2022-08-07T10:38:50;21.30;1.00
9885;DHT22;4981;50.966;4.842;2022-08-07T10:41:30;21.50;1.00
9885;DHT22;4981;50.966;4.842;2022-08-07T10:44:05;21.30;1.00
9885;DHT22;4981;50.966;4.842;2022-08-07T10:46:38;21.90;1.00
9885;DHT22;4981;50.966;4.842;2022-08-07T10:49:09;22.60;1.00
9885;DHT22;4981;50.966;4.842;2022-08-07T10:51:48;21.90;1.00
9885;DHT22;4981;50.966;4.842;2022-08-07T10:54:24;21.60;1.00
9885;DHT22;4981;50.966;4.842;2022-08-07T10:57:02;21.60;1.00
9885;DHT22;4981;50.966;4.842;2022-08-07T10:59:40;21.30;1.00
9885;DHT22;4981;50.966;4.842;2022-08-07T11:02:17;22.30;1.00
9885;DHT22;4981;50.966;4.842;2022-08-07T11:04:58;22.90;1.00
9885;DHT22;4981;50.966;4.842;2022-08-07T11:07:37;22.30;1.00
9885;DHT22;4981;50.966;4.842;2022-08-07T11:10:15;22.30;1.00
9885;DHT22;4981;50.966;4.842;2022-08-07T11:12:49;22.20;1.00
9885;DHT22;4981;50.966;4.842;2022-08-07T11:15:21;22.80;1.00
9885;DHT22;4981;50.966;4.842;2022-08-07T11:17:57;22.60;1.00
9885;DHT22;4981;50.966;4.842;2022-08-07T11:20:30;22.30;1.00
9885;DHT22;4981;50.966;4.842;2022-08-07T11:23:06;22.60;1.00
9885;DHT22;4981;50.966;4.842;2022-08-07T11:25:37;22.40;1.00
9885;DHT22;4981;50.966;4.842;2022-08-07T11:28:13;22.20;1.00
9885;DHT22;4981;50.966;4.842;2022-08-07T11:30:56;22.40;1.00
9885;DHT22;4981;50.966;4.842;2022-08-07T11:33:33;22.30;1.00
9885;DHT22;4981;50.966;4.842;2022-08-07T11:36:16;21.90;1.00
9885;DHT22;4981;50.966;4.842;2022-08-07T11:38:52;22.20;1.00
9885;DHT22;4981;50.966;4.842;2022-08-07T11:41:28;22.20;1.00
9885;DHT22;4981;50.966;4.842;2022-08-07T11:44:08;22.30;1.00
9885;DHT22;4981;50.966;4.842;2022-08-07T11:46:56;22.20;1.00
9885;DHT22;4981;50.966;4.842;2022-08-07T11:49:51;22.40;1.00
9885;DHT22;4981;50.966;4.842;2022-08-07T11:52:41;22.40;1.00
9885;DHT22;4981;50.966;4.842;2022-08-07T11:55:16;22.00;1.00
9885;DHT22;4981;50.966;4.842;2022-08-07T11:58:04;22.20;1.00
9885;DHT22;4981;50.966;4.842;2022-08-07T12:00:39;22.50;1.00
9885;DHT22;4981;50.966;4.842;2022-08-07T12:03:35;22.50;1.00
9885;DHT22;4981;50.966;4.842;2022-08-07T12:06:21;22.90;1.00
9885;DHT22;4981;50.966;4.842;2022-08-07T12:08:54;22.90;1.00
9885;DHT22;4981;50.966;4.842;2022-08-07T12:11:29;23.90;1.00
9885;DHT22;4981;50.966;4.842;2022-08-07T12:14:05;25.20;1.00
9885;DHT22;4981;50.966;4.842;2022-08-07T12:16:41;26.90;1.00
9885;DHT22;4981;50.966;4.842;2022-08-07T12:19:16;27.20;1.00
9885;DHT22;4981;50.966;4.842;2022-08-07T12:21:53;27.40;1.00
9885;DHT22;4981;50.966;4.842;2022-08-07T12:24:31;27.80;1.00
9885;DHT22;4981;50.966;4.842;2022-08-07T12:27:03;28.80;1.00
9885;DHT22;4981;50.966;4.842;2022-08-07T12:29:47;28.90;1.00
9885;DHT22;4981;50.966;4.842;2022-08-07T12:32:20;28.90;1.00
9885;DHT22;4981;50.966;4.842;2022-08-07T12:34:50;29.80;1.00
9885;DHT22;4981;50.966;4.842;2022-08-07T12:37:19;29.70;1.00
9885;DHT22;4981;50.966;4.842;2022-08-07T12:39:48;29.40;1.00
9885;DHT22;4981;50.966;4.842;2022-08-07T12:42:19;30.00;1.00
9885;DHT22;4981;50.966;4.842;2022-08-07T12:44:49;30.10;1.00
9885;DHT22;4981;50.966;4.842;2022-08-07T12:47:23;30.00;1.00
9885;DHT22;4981;50.966;4.842;2022-08-07T12:50:02;30.50;1.00
9885;DHT22;4981;50.966;4.842;2022-08-07T12:52:37;31.00;1.00
9885;DHT22;4981;50.966;4.842;2022-08-07T12:55:13;31.70;1.00
9885;DHT22;4981;50.966;4.842;2022-08-07T12:57:45;30.20;1.00
9885;DHT22;4981;50.966;4.842;2022-08-07T13:00:14;28.80;1.00
9885;DHT22;4981;50.966;4.842;2022-08-07T13:02:59;29.40;1.00
9885;DHT22;4981;50.966;4.842;2022-08-07T13:05:40;30.20;1.00
9885;DHT22;4981;50.966;4.842;2022-08-07T13:08:33;31.50;1.00
9885;DHT22;4981;50.966;4.842;2022-08-07T13:11:12;33.00;1.00
9885;DHT22;4981;50.966;4.842;2022-08-07T13:13:55;33.70;1.00
9885;DHT22;4981;50.966;4.842;2022-08-07T13:16:30;33.60;1.00
9885;DHT22;4981;50.966;4.842;2022-08-07T13:19:14;31.80;1.00
9885;DHT22;4981;50.966;4.842;2022-08-07T13:21:49;32.10;1.00
9885;DHT22;4981;50.966;4.842;2022-08-07T13:24:22;33.50;1.00
9885;DHT22;4981;50.966;4.842;2022-08-07T13:26:54;33.50;1.00
9885;DHT22;4981;50.966;4.842;2022-08-07T13:29:28;34.40;1.00
9885;DHT22;4981;50.966;4.842;2022-08-07T13:32:02;35.50;1.00
9885;DHT22;4981;50.966;4.842;2022-08-07T13:34:39;33.00;1.00
9885;DHT22;4981;50.966;4.842;2022-08-07T13:37:17;31.50;1.00
9885;DHT22;4981;50.966;4.842;2022-08-07T13:39:55;33.20;1.00
9885;DHT22;4981;50.966;4.842;2022-08-07T13:42:25;33.00;1.00
9885;DHT22;4981;50.966;4.842;2022-08-07T13:44:55;34.00;1.00
9885;DHT22;4981;50.966;4.842;2022-08-07T13:47:26;34.50;1.00
9885;DHT22;4981;50.966;4.842;2022-08-07T13:49:58;35.20;1.00
9885;DHT22;4981;50.966;4.842;2022-08-07T13:52:26;34.20;1.00
9885;DHT22;4981;50.966;4.842;2022-08-07T13:54:57;33.80;1.00
9885;DHT22;4981;50.966;4.842;2022-08-07T13:57:27;33.90;1.00
9885;DHT22;4981;50.966;4.842;2022-08-07T13:59:56;34.80;1.00
9885;DHT22;4981;50.966;4.842;2022-08-07T14:02:28;33.00;1.00
9885;DHT22;4981;50.966;4.842;2022-08-07T14:05:03;34.70;1.00
9885;DHT22;4981;50.966;4.842;2022-08-07T14:07:33;33.60;1.00
9885;DHT22;4981;50.966;4.842;2022-08-07T14:10:04;33.20;1.00
9885;DHT22;4981;50.966;4.842;2022-08-07T14:12:37;34.00;1.00
9885;DHT22;4981;50.966;4.842;2022-08-07T14:15:18;35.00;1.00
9885;DHT22;4981;50.966;4.842;2022-08-07T14:17:47;34.20;1.00
9885;DHT22;4981;50.966;4.842;2022-08-07T14:20:19;33.00;1.00
9885;DHT22;4981;50.966;4.842;2022-08-07T14:22:50;34.00;1.00
9885;DHT22;4981;50.966;4.842;2022-08-07T14:25:24;34.90;1.00
9885;DHT22;4981;50.966;4.842;2022-08-07T14:27:54;34.40;1.00
9885;DHT22;4981;50.966;4.842;2022-08-07T14:30:22;33.20;1.00
9885;DHT22;4981;50.966;4.842;2022-08-07T14:32:54;32.10;1.00
9885;DHT22;4981;50.966;4.842;2022-08-07T14:35:27;33.80;1.00
9885;DHT22;4981;50.966;4.842;2022-08-07T14:37:56;33.20;1.00
9885;DHT22;4981;50.966;4.842;2022-08-07T14:40:25;33.30;1.00
9885;DHT22;4981;50.966;4.842;2022-08-07T14:42:57;33.90;1.00
9885;DHT22;4981;50.966;4.842;2022-08-07T14:45:28;34.80;1.00
9885;DHT22;4981;50.966;4.842;2022-08-07T14:48:00;34.50;1.00
9885;DHT22;4981;50.966;4.842;2022-08-07T14:50:29;34.30;1.00
9885;DHT22;4981;50.966;4.842;2022-08-07T14:52:59;34.00;1.00
9885;DHT22;4981;50.966;4.842;2022-08-07T14:55:31;34.80;1.00
9885;DHT22;4981;50.966;4.842;2022-08-07T14:58:01;34.80;1.00
9885;DHT22;4981;50.966;4.842;2022-08-07T15:00:31;35.30;1.00
9885;DHT22;4981;50.966;4.842;2022-08-07T15:03:04;32.00;1.00
9885;DHT22;4981;50.966;4.842;2022-08-07T15:05:34;33.70;1.00
9885;DHT22;4981;50.966;4.842;2022-08-07T15:08:05;35.40;1.00
9885;DHT22;4981;50.966;4.842;2022-08-07T15:10:34;34.50;1.00
9885;DHT22;4981;50.966;4.842;2022-08-07T15:13:06;33.10;1.00
9885;DHT22;4981;50.966;4.842;2022-08-07T15:15:37;33.10;1.00
9885;DHT22;4981;50.966;4.842;2022-08-07T15:18:10;33.70;1.00
9885;DHT22;4981;50.966;4.842;2022-08-07T15:20:39;34.60;1.00
9885;DHT22;4981;50.966;4.842;2022-08-07T15:23:12;35.50;1.00
9885;DHT22;4981;50.966;4.842;2022-08-07T15:25:46;36.80;1.00
9885;DHT22;4981;50.966;4.842;2022-08-07T15:28:19;35.90;1.00
9885;DHT22;4981;50.966;4.842;2022-08-07T15:30:48;36.40;1.00
9885;DHT22;4981;50.966;4.842;2022-08-07T15:33:17;35.90;1.00
9885;DHT22;4981;50.966;4.842;2022-08-07T15:35:50;35.00;1.00
9885;DHT22;4981;50.966;4.842;2022-08-07T15:38:18;35.00;1.00
9885;DHT22;4981;50.966;4.842;2022-08-07T15:40:47;36.00;1.00
9885;DHT22;4981;50.966;4.842;2022-08-07T15:43:17;36.70;1.00
9885;DHT22;4981;50.966;4.842;2022-08-07T15:45:46;34.80;1.00
9885;DHT22;4981;50.966;4.842;2022-08-07T15:48:19;35.00;1.00
9885;DHT22;4981;50.966;4.842;2022-08-07T15:50:51;34.50;1.00
9885;DHT22;4981;50.966;4.842;2022-08-07T15:53:25;33.50;1.00
9885;DHT22;4981;50.966;4.842;2022-08-07T15:55:56;33.70;1.00
9885;DHT22;4981;50.966;4.842;2022-08-07T15:58:33;35.50;1.00
9885;DHT22;4981;50.966;4.842;2022-08-07T16:01:02;35.50;1.00
9885;DHT22;4981;50.966;4.842;2022-08-07T16:03:36;34.70;1.00
9885;DHT22;4981;50.966;4.842;2022-08-07T16:06:07;35.80;1.00
9885;DHT22;4981;50.966;4.842;2022-08-07T16:08:40;36.40;1.00
9885;DHT22;4981;50.966;4.842;2022-08-07T16:14:11;33.70;1.00
9885;DHT22;4981;50.966;4.842;2022-08-07T16:17:06;34.40;1.00
9885;DHT22;4981;50.966;4.842;2022-08-07T16:19:58;34.80;1.00
9885;DHT22;4981;50.966;4.842;2022-08-07T16:22:54;34.20;1.00
9885;DHT22;4981;50.966;4.842;2022-08-07T16:25:54;33.60;1.00
9885;DHT22;4981;50.966;4.842;2022-08-07T16:28:47;32.50;1.00
9885;DHT22;4981;50.966;4.842;2022-08-07T16:31:26;34.20;1.00
9885;DHT22;4981;50.966;4.842;2022-08-07T16:33:59;34.50;1.00
9885;DHT22;4981;50.966;4.842;2022-08-07T16:36:37;33.90;1.00
9885;DHT22;4981;50.966;4.842;2022-08-07T16:39:28;35.40;1.00
9885;DHT22;4981;50.966;4.842;2022-08-07T16:42:17;35.40;1.00
9885;DHT22;4981;50.966;4.842;2022-08-07T16:45:02;34.20;1.00
9885;DHT22;4981;50.966;4.842;2022-08-07T16:48:00;33.80;1.00
9885;DHT22;4981;50.966;4.842;2022-08-07T16:50:49;33.50;1.00
9885;DHT22;4981;50.966;4.842;2022-08-07T16:53:41;33.50;1.00
9885;DHT22;4981;50.966;4.842;2022-08-07T16:56:18;33.30;1.00
9885;DHT22;4981;50.966;4.842;2022-08-07T16:58:54;33.50;1.00
9885;DHT22;4981;50.966;4.842;2022-08-07T17:01:40;33.40;1.00